Boy Lake, Minnesota
Current Conditions -  °F | °C
As of 10:16 PM on Tuesday 25 Nov 2014 (Local Time) from KXVG Reporting Station
Overcast Overcast  
Wind Chill: 18°   Ceiling: 2900
Heat Index: 18°   Visibility: 10mi
Dew Point:   Wind: 0mph
Humidity: 68%   Direction: NA
Pressure: 30.02"   Gusts: NA
Location:  47.0632°N, 94.1534°W
Report Text: KXVG 260416Z AUTO 00000KT 10SM OVC029 M08/M13 A3002 RMK AO2
Loading
Personal Weather Stations






























Interactive Weather Map New forecast layout! Learn more

10-Day Weather Forecast

Advertisements
Track Severe Weather on mobile